Time;durP1;ratioP1;P1;durP2;ratioP2;P2;SDS_P1;SDS_P2;PMS_P1;PMS_P2;Temp;Humidity;BMP_temperature;BMP_pressure;BME280_temperature;BME280_humidity;BME280_pressure;Samples;Min_cycle;Max_cycle;Signal;HPM_P1;HPM_P2
2022/08/24 00:00:19;;;;;;;;;;;;;;;19.44;52.67;97029.63;30002;983;1876;-72
2022/08/24 00:00:52;;;;;;;;;;;;;;;19.45;52.74;97030.41;30002;983;1876;-72
2022/08/24 00:01:23;;;;;;;;;;;;;;;19.43;53.10;97028.81;30002;983;1881;-70
2022/08/24 00:01:54;;;;;;;;;;;;;;;19.45;52.96;97024.91;30002;983;1877;-73
2022/08/24 00:02:25;;;;;;;;;;;;;;;19.43;52.83;97028.81;30002;982;1881;-72
2022/08/24 00:02:56;;;;;;;;;;;;;;;19.43;52.90;97026.06;30002;982;1855;-70
2022/08/24 00:03:27;;;;;;;;;;;;;;;19.47;52.94;97033.63;30002;982;1877;-71
2022/08/24 00:03:58;;;;;;;;;;;;;;;19.48;52.55;97029.72;30002;982;1855;-70
2022/08/24 00:04:29;;;;;;;;;;;;;;;19.48;52.56;97029.72;30002;982;1877;-69
2022/08/24 00:05:00;;;;;;;;;;;;;;;19.50;52.24;97032.94;30002;983;1876;-73
2022/08/24 00:05:31;;;;;;;;;;;;;;;19.50;52.54;97027.44;30002;983;1880;-69
2022/08/24 00:06:04;;;;;;;;;;;;;;;19.49;52.59;97031.31;30001;983;1876;-69
2022/08/24 00:06:34;;;;;;;;;;;;;;;19.49;52.75;97023.06;30001;983;1881;-73
2022/08/24 00:07:07;;;;;;;;;;;;;;;19.48;52.46;97026.97;30001;977;1895;-69
2022/08/24 00:07:39;;;;;;;;;;;;;;;19.47;52.49;97023.41;30001;983;1881;-69
2022/08/24 00:08:10;;;;;;;;;;;;;;;19.48;52.49;97026.97;30002;983;1737;-71
2022/08/24 00:08:42;;;;;;;;;;;;;;;19.49;52.17;97031.31;30002;983;1876;-73
2022/08/24 00:09:13;;;;;;;;;;;;;;;19.48;52.24;97027.78;30001;966;1901;-71
2022/08/24 00:09:43;;;;;;;;;;;;;;;19.47;52.42;97022.63;30001;983;1881;-70
2022/08/24 00:10:15;;;;;;;;;;;;;;;19.47;52.43;97023.41;30001;982;1877;-70
2022/08/24 00:10:45;;;;;;;;;;;;;;;19.46;52.41;97021.81;30001;982;1881;-69
2022/08/24 00:11:17;;;;;;;;;;;;;;;19.47;52.37;97022.63;30001;982;1877;-69
2022/08/24 00:11:48;;;;;;;;;;;;;;;19.47;52.30;97023.41;30001;982;1859;-71
2022/08/24 00:12:20;;;;;;;;;;;;;;;19.48;52.33;97025.03;30001;982;1872;-73
2022/08/24 00:12:54;;;;;;;;;;;;;;;19.48;52.22;97024.22;30001;983;1880;-70
2022/08/24 00:13:25;;;;;;;;;;;;;;;19.48;52.55;97024.22;30001;963;1896;-70
2022/08/24 00:13:56;;;;;;;;;;;;;;;19.48;52.15;97026.97;30001;983;1880;-70
2022/08/24 00:14:27;;;;;;;;;;;;;;;19.47;52.22;97028.13;30001;983;1876;-73
2022/08/24 00:14:58;;;;;;;;;;;;;;;19.45;52.34;97022.16;30001;983;1881;-71
2022/08/24 00:15:29;;;;;;;;;;;;;;;19.43;52.82;97017.00;30001;983;1876;-70
2022/08/24 00:16:01;;;;;;;;;;;;;;;19.41;52.73;97027.56;30001;983;1881;-70
2022/08/24 00:16:34;;;;;;;;;;;;;;;19.40;52.78;97021.25;30001;983;1855;-70
2022/08/24 00:17:05;;;;;;;;;;;;;;;19.39;52.88;97027.94;30001;983;1855;-70
2022/08/24 00:17:36;;;;;;;;;;;;;;;19.38;52.80;97020.03;30001;982;1877;-70
2022/08/24 00:18:07;;;;;;;;;;;;;;;19.37;52.70;97021.16;30001;982;1881;-70
2022/08/24 00:18:38;;;;;;;;;;;;;;;19.36;52.64;97019.56;30001;982;1877;-70
2022/08/24 00:19:10;;;;;;;;;;;;;;;19.35;52.79;97017.97;30001;982;1881;-71
2022/08/24 00:19:41;;;;;;;;;;;;;;;19.35;53.00;97029.75;30001;982;1877;-73
2022/08/24 00:20:13;;;;;;;;;;;;;;;19.33;53.02;97021.06;30001;983;1880;-72
2022/08/24 00:20:44;;;;;;;;;;;;;;;19.34;53.00;97019.91;30001;983;1876;-70
2022/08/24 00:21:15;;;;;;;;;;;;;;;19.32;53.02;97021.41;30001;983;1881;-69
2022/08/24 00:21:47;;;;;;;;;;;;;;;19.32;53.00;97027.69;30001;983;1855;-71
2022/08/24 00:22:18;;;;;;;;;;;;;;;19.31;52.88;97020.59;30001;983;1876;-72
2022/08/24 00:22:49;;;;;;;;;;;;;;;19.30;53.05;97016.25;30001;983;1876;-70
2022/08/24 00:23:20;;;;;;;;;;;;;;;19.29;53.29;97025.62;30001;983;1859;-70
2022/08/24 00:23:51;;;;;;;;;;;;;;;19.29;53.07;97017.38;30001;983;1872;-70
2022/08/24 00:24:22;;;;;;;;;;;;;;;19.30;52.91;97018.19;30001;982;1881;-70
2022/08/24 00:24:53;;;;;;;;;;;;;;;19.31;52.62;97017.84;30001;982;1877;-72
2022/08/24 00:25:24;;;;;;;;;;;;;;;19.32;52.90;97015.91;30001;982;1881;-69
2022/08/24 00:25:55;;;;;;;;;;;;;;;19.31;52.46;97020.59;30001;982;1877;-70
2022/08/24 00:26:26;;;;;;;;;;;;;;;19.32;52.73;97022.19;30001;980;1881;-70
2022/08/24 00:26:58;;;;;;;;;;;;;;;19.33;52.57;97023.81;30001;982;1855;-71
2022/08/24 00:27:30;;;;;;;;;;;;;;;19.33;52.49;97012.81;30001;982;1877;-70
2022/08/24 00:28:00;;;;;;;;;;;;;;;19.34;52.15;97019.09;30001;983;1876;-70
2022/08/24 00:28:35;;;;;;;;;;;;;;;19.34;52.13;97014.41;30001;983;1881;-70
2022/08/24 00:29:06;;;;;;;;;;;;;;;19.36;52.23;97016.81;30001;983;1876;-70
2022/08/24 00:29:37;;;;;;;;;;;;;;;19.36;52.11;97023.13;30001;983;1859;-71
2022/08/24 00:30:10;;;;;;;;;;;;;;;19.38;51.83;97020.81;30001;983;1872;-70
2022/08/24 00:30:41;;;;;;;;;;;;;;;19.38;51.77;97015.31;30001;983;1859;-70
2022/08/24 00:31:12;;;;;;;;;;;;;;;19.39;51.79;97016.91;30001;983;1872;-70
2022/08/24 00:31:43;;;;;;;;;;;;;;;19.39;52.08;97016.91;30001;983;1881;-69
2022/08/24 00:32:13;;;;;;;;;;;;;;;19.40;51.87;97017.72;30001;982;1877;-56
2022/08/24 00:32:45;;;;;;;;;;;;;;;19.40;52.09;97021.25;30001;982;1881;-70
2022/08/24 00:33:16;;;;;;;;;;;;;;;19.41;51.76;97020.09;30001;982;1877;-70
2022/08/24 00:33:47;;;;;;;;;;;;;;;19.43;51.94;97023.31;30001;982;1881;-69
2022/08/24 00:34:18;;;;;;;;;;;;;;;19.43;51.50;97017.81;30001;982;1877;-69
2022/08/24 00:34:49;;;;;;;;;;;;;;;19.43;51.65;97006.78;30001;982;1881;-69
2022/08/24 00:35:20;;;;;;;;;;;;;;;19.45;51.71;97014.72;30001;983;1876;-70
2022/08/24 00:35:51;;;;;;;;;;;;;;;19.45;51.87;97013.91;30001;983;1859;-70
2022/08/24 00:36:23;;;;;;;;;;;;;;;19.46;51.58;97010.00;30001;983;1872;-70
2022/08/24 00:36:54;;;;;;;;;;;;;;;19.46;51.64;97015.50;30001;983;1881;-71
2022/08/24 00:37:27;;;;;;;;;;;;;;;19.46;51.58;97021.00;30001;983;1876;-73
2022/08/24 00:37:58;;;;;;;;;;;;;;;19.46;51.61;97018.25;30001;983;1881;-71
2022/08/24 00:38:29;;;;;;;;;;;;;;;19.46;51.83;97016.31;30001;983;1876;-70
2022/08/24 00:39:01;;;;;;;;;;;;;;;19.48;51.78;97015.97;30001;983;1881;-70
2022/08/24 00:39:31;;;;;;;;;;;;;;;19.48;51.88;97016.78;30001;982;1876;-69
2022/08/24 00:40:04;;;;;;;;;;;;;;;19.49;51.75;97014.81;30001;982;1881;-70
2022/08/24 00:40:40;;;;;;;;;;;;;;;19.50;51.47;97016.41;30001;982;1877;-70
2022/08/24 00:41:13;;;;;;;;;;;;;;;19.50;51.53;97010.91;30001;982;1761;-73
2022/08/24 00:41:45;;;;;;;;;;;;;;;19.49;51.43;97012.06;30001;982;1850;-70
2022/08/24 00:42:16;;;;;;;;;;;;;;;19.49;51.63;97009.31;30001;982;1881;-69
2022/08/24 00:42:48;;;;;;;;;;;;;;;19.51;51.40;97012.56;30001;983;1876;-69
2022/08/24 00:43:21;;;;;;;;;;;;;;;19.51;51.79;97012.56;30001;983;1880;-70
2022/08/24 00:43:53;;;;;;;;;;;;;;;19.50;51.33;97011.72;30001;983;1876;-70
2022/08/24 00:44:25;;;;;;;;;;;;;;;19.52;51.51;97014.16;30001;983;1881;-70
2022/08/24 00:44:56;;;;;;;;;;;;;;;19.52;51.35;97014.16;30001;983;1876;-70
2022/08/24 00:45:28;;;;;;;;;;;;;;;19.52;51.57;97005.91;30001;983;1881;-70
2022/08/24 00:46:18;;;;;;;;;;;;;;;19.53;51.44;97004.75;30001;983;1854;-70
2022/08/24 00:46:57;;;;;;;;;;;;;;;19.55;51.36;97007.97;30001;983;1872;-71
2022/08/24 00:47:32;;;;;;;;;;;;;;;19.55;51.37;97010.72;30001;982;1877;-70
2022/08/24 00:48:10;;;;;;;;;;;;;;;19.55;51.42;97007.97;30001;982;1859;-71
2022/08/24 00:48:43;;;;;;;;;;;;;;;19.54;51.11;97004.41;30001;982;1872;-70
2022/08/24 00:49:28;;;;;;;;;;;;;;;19.54;51.24;97011.84;30001;982;1881;-70
2022/08/24 00:50:05;;;;;;;;;;;;;;;19.55;50.99;97005.22;30001;983;1876;-71
2022/08/24 00:51:01;;;;;;;;;;;;;;;19.54;51.33;97006.34;30001;983;1881;-70
2022/08/24 00:51:38;;;;;;;;;;;;;;;19.55;51.29;97013.47;30001;983;1872;-72
2022/08/24 00:52:38;;;;;;;;;;;;;;;19.55;50.91;97010.72;30001;983;1859;-71
2022/08/24 00:53:19;;;;;;;;;;;;;;;19.55;50.90;97016.22;30001;983;1867;-71
2022/08/24 00:53:52;;;;;;;;;;;;;;;19.56;51.17;97015.06;30001;983;1859;-70
2022/08/24 00:54:25;;;;;;;;;;;;;;;19.55;50.93;97005.22;30001;983;1872;-55
2022/08/24 00:55:01;;;;;;;;;;;;;;;19.55;51.06;97007.97;30001;982;1881;-72
2022/08/24 00:55:35;;;;;;;;;;;;;;;19.55;51.06;97007.97;30001;982;1877;-70
2022/08/24 00:56:09;;;;;;;;;;;;;;;19.54;51.30;97006.34;30001;982;1859;-70
2022/08/24 00:56:42;;;;;;;;;;;;;;;19.53;51.05;97015.75;30001;982;1851;-73
2022/08/24 00:57:15;;;;;;;;;;;;;;;19.51;51.32;97007.03;30001;983;1880;-70
2022/08/24 00:57:48;;;;;;;;;;;;;;;19.50;51.23;97008.16;30001;983;1876;-70
2022/08/24 00:58:22;;;;;;;;;;;;;;;19.47;51.53;97011.59;30001;983;1881;-70
2022/08/24 00:58:58;;;;;;;;;;;;;;;19.47;51.49;97012.41;30001;983;1876;-72
2022/08/24 00:59:31;;;;;;;;;;;;;;;19.45;51.62;97013.91;30001;983;1881;-69
2022/08/24 01:00:23;;;;;;;;;;;;;;;19.45;51.65;97013.91;30001;983;1876;-70
2022/08/24 01:01:01;;;;;;;;;;;;;;;19.44;51.45;97007.59;30001;983;1881;-70
2022/08/24 01:01:33;;;;;;;;;;;;;;;19.43;51.52;97009.53;30001;982;1877;-70
2022/08/24 01:02:09;;;;;;;;;;;;;;;19.42;51.60;97007.16;30001;982;1859;-72
2022/08/24 01:02:43;;;;;;;;;;;;;;;19.40;51.40;97007.50;30001;982;1872;-70
2022/08/24 01:03:14;;;;;;;;;;;;;;;19.39;51.79;97011.41;30001;982;1881;-70
2022/08/24 01:03:45;;;;;;;;;;;;;;;19.40;51.46;97018.50;30001;982;1849;-72
2022/08/24 01:04:19;;;;;;;;;;;;;;;19.36;51.91;97009.34;30001;982;1881;-74
2022/08/24 01:04:58;;;;;;;;;;;;;;;19.37;51.86;97012.91;30001;983;1876;-70
2022/08/24 01:05:30;;;;;;;;;;;;;;;19.35;51.66;97016.00;30001;983;1881;-70
2022/08/24 01:06:01;;;;;;;;;;;;;;;19.35;51.62;97009.69;30001;983;1876;-73
2022/08/24 01:06:34;;;;;;;;;;;;;;;19.34;51.62;97008.91;30001;983;1881;-70
2022/08/24 01:07:05;;;;;;;;;;;;;;;19.34;51.63;97008.09;30001;983;1854;-71
2022/08/24 01:07:37;;;;;;;;;;;;;;;19.34;51.69;97008.09;30001;983;1876;-70
2022/08/24 01:08:09;;;;;;;;;;;;;;;19.34;51.41;97008.09;30001;983;1877;-70
2022/08/24 01:08:40;;;;;;;;;;;;;;;19.33;51.49;97004.53;30001;982;1859;-71
2022/08/24 01:09:11;;;;;;;;;;;;;;;19.33;51.49;97001.00;30001;982;1872;-71
2022/08/24 01:09:42;;;;;;;;;;;;;;;19.32;51.83;97005.69;30001;982;1881;-70
2022/08/24 01:10:15;;;;;;;;;;;;;;;19.32;51.59;97007.66;30001;982;1877;-70
2022/08/24 01:10:48;;;;;;;;;;;;;;;19.30;51.87;97008.00;30001;982;1859;-72
2022/08/24 01:11:20;;;;;;;;;;;;;;;19.29;51.62;97006.37;30001;961;1894;-69
2022/08/24 01:11:51;;;;;;;;;;;;;;;19.28;51.73;97002.03;30001;982;1881;-70
2022/08/24 01:12:24;;;;;;;;;;;;;;;19.28;51.91;97007.53;30001;983;1876;-70
2022/08/24 01:12:57;;;;;;;;;;;;;;;19.27;52.01;97003.19;30001;983;1880;-70
2022/08/24 01:13:30;;;;;;;;;;;;;;;19.27;51.84;97008.69;30001;983;1876;-69
2022/08/24 01:14:02;;;;;;;;;;;;;;;19.25;51.96;97005.47;30001;983;1881;-70
2022/08/24 01:14:34;;;;;;;;;;;;;;;19.26;51.80;97001.56;30001;983;1876;-71
2022/08/24 01:15:07;;;;;;;;;;;;;;;19.27;52.07;97007.88;30001;983;1859;-70
2022/08/24 01:15:39;;;;;;;;;;;;;;;19.25;51.83;97004.66;30001;983;1872;-69
2022/08/24 01:16:11;;;;;;;;;;;;;;;19.24;52.02;97009.38;30001;983;1859;-70
2022/08/24 01:19:16;;;;;;;;;;;;;;;19.17;52.34;97008.34;30001;982;1881;-71
2022/08/24 01:19:49;;;;;;;;;;;;;;;19.17;52.14;97009.12;30001;983;1854;-70
2022/08/24 01:20:22;;;;;;;;;;;;;;;19.17;52.11;97005.59;30001;983;1876;-56
2022/08/24 01:21:03;;;;;;;;;;;;;;;19.17;52.19;97011.88;30001;983;1854;-70
2022/08/24 01:21:39;;;;;;;;;;;;;;;19.15;52.28;97022.44;30001;967;1779;-70
2022/08/24 01:22:19;;;;;;;;;;;;;;;19.15;52.14;97011.44;30001;983;1876;-69
2022/08/24 01:23:09;;;;;;;;;;;;;;;19.13;52.30;97019.22;30001;983;1881;-70
2022/08/24 01:23:42;;;;;;;;;;;;;;;19.12;52.30;97012.13;30001;983;1868;-57
2022/08/24 01:24:13;;;;;;;;;;;;;;;19.10;52.53;97019.91;30001;982;1881;-73
2022/08/24 01:24:44;;;;;;;;;;;;;;;19.09;52.54;97013.59;30001;982;1877;-70
2022/08/24 01:25:16;;;;;;;;;;;;;;;19.07;53.41;97021.41;30001;982;1859;-71
2022/08/24 01:25:46;;;;;;;;;;;;;;;19.03;53.83;97025.22;30001;982;1872;-73
2022/08/24 01:26:20;;;;;;;;;;;;;;;18.97;54.40;97026.59;30001;982;1881;-71
2022/08/24 01:26:50;;;;;;;;;;;;;;;18.88;54.97;97025.88;30001;982;1877;-73
2022/08/24 01:27:22;;;;;;;;;;;;;;;18.80;55.30;97030.34;30001;983;1859;-74
2022/08/24 01:27:57;;;;;;;;;;;;;;;18.74;54.85;97029.75;30001;983;1872;-73
2022/08/24 01:28:30;;;;;;;;;;;;;;;18.71;54.81;97024.16;30001;983;1881;-73
2022/08/24 01:29:06;;;;;;;;;;;;;;;18.71;54.63;97026.91;30001;983;1854;-71
2022/08/24 01:29:39;;;;;;;;;;;;;;;18.69;54.70;97031.94;30001;983;1876;-74
2022/08/24 01:30:12;;;;;;;;;;;;;;;18.68;54.58;97025.66;30001;985;1883;-72
2022/08/24 01:30:44;;;;;;;;;;;;;;;18.68;54.57;97025.66;30001;983;1881;-70
2022/08/24 01:31:17;;;;;;;;;;;;;;;18.67;54.38;97024.06;30001;983;1855;-69
2022/08/24 01:31:48;;;;;;;;;;;;;;;18.69;54.54;97031.94;30001;982;1877;-69
2022/08/24 01:32:22;;;;;;;;;;;;;;;18.68;54.69;97025.66;30001;982;1877;-68
2022/08/24 01:32:58;;;;;;;;;;;;;;;18.67;54.42;97026.78;30001;982;1881;-71
2022/08/24 01:33:30;;;;;;;;;;;;;;;18.67;54.32;97024.06;30001;982;1773;-70
2022/08/24 01:34:01;;;;;;;;;;;;;;;18.66;54.35;97022.44;30001;983;1876;-71
2022/08/24 01:34:32;;;;;;;;;;;;;;;18.64;54.30;97024.72;30001;983;1854;-70
2022/08/24 01:35:03;;;;;;;;;;;;;;;18.63;54.20;97028.63;30001;983;1876;-74
2022/08/24 01:35:37;;;;;;;;;;;;;;;18.63;54.13;97020.37;30001;983;1876;-73
2022/08/24 01:36:13;;;;;;;;;;;;;;;18.60;54.13;97021.06;30001;983;1881;-70
2022/08/24 01:36:47;;;;;;;;;;;;;;;18.60;54.18;97023.81;30001;983;1854;-70
2022/08/24 01:37:18;;;;;;;;;;;;;;;18.60;54.32;97023.81;30001;983;1854;-72
2022/08/24 01:37:50;;;;;;;;;;;;;;;18.59;54.35;97022.16;30001;983;1859;-69
2022/08/24 01:38:21;;;;;;;;;;;;;;;18.57;54.15;97024.44;30001;983;1881;-70
2022/08/24 01:38:53;;;;;;;;;;;;;;;18.57;54.25;97023.66;30001;982;1859;-70
2022/08/24 01:39:25;;;;;;;;;;;;;;;18.57;54.28;97031.91;30001;982;1881;-70
2022/08/24 01:39:57;;;;;;;;;;;;;;;18.55;54.36;97029.47;30001;982;1881;-73
2022/08/24 01:40:32;;;;;;;;;;;;;;;18.55;54.29;97024.00;30001;982;1864;-70
2022/08/24 01:41:03;;;;;;;;;;;;;;;18.54;54.32;97025.12;30001;982;1809;-73
2022/08/24 01:41:34;;;;;;;;;;;;;;;18.54;54.47;97029.81;30001;983;1885;-70
2022/08/24 01:42:05;;;;;;;;;;;;;;;18.53;54.15;97029.03;30001;983;1880;-70
2022/08/24 01:42:36;;;;;;;;;;;;;;;18.52;54.37;97035.66;30001;983;1885;-70
2022/08/24 01:43:07;;;;;;;;;;;;;;;18.52;54.36;97027.41;30001;983;1880;-70
2022/08/24 01:43:38;;;;;;;;;;;;;;;18.51;54.27;97025.00;30001;983;1885;-73
2022/08/24 01:44:09;;;;;;;;;;;;;;;18.52;54.48;97021.91;30001;983;1881;-71
2022/08/24 01:44:41;;;;;;;;;;;;;;;18.51;54.39;97023.06;30001;983;1863;-70
2022/08/24 01:45:11;;;;;;;;;;;;;;;18.50;54.30;97024.22;30001;983;1854;-71
2022/08/24 01:45:43;;;;;;;;;;;;;;;18.51;54.37;97027.75;30001;983;1885;-71
2022/08/24 01:46:14;;;;;;;;;;;;;;;18.49;54.09;97022.59;30001;983;1881;-70
2022/08/24 01:46:47;;;;;;;;;;;;;;;18.51;54.34;97027.75;30001;982;1885;-70
2022/08/24 01:47:18;;;;;;;;;;;;;;;18.50;54.08;97029.69;30001;982;1881;-70
2022/08/24 01:47:49;;;;;;;;;;;;;;;18.50;54.32;97024.22;30001;982;1885;-71
2022/08/24 01:48:20;;;;;;;;;;;;;;;18.50;54.12;97026.16;30001;982;1881;-70
2022/08/24 01:48:51;;;;;;;;;;;;;;;18.48;54.34;97029.25;30001;982;1886;-71
2022/08/24 01:49:23;;;;;;;;;;;;;;;18.47;54.36;97024.88;30001;965;1898;-70
2022/08/24 01:49:54;;;;;;;;;;;;;;;18.46;54.48;97031.53;30001;983;1863;-71
2022/08/24 01:50:25;;;;;;;;;;;;;;;18.45;54.28;97032.66;30001;983;1876;-70
2022/08/24 01:50:56;;;;;;;;;;;;;;;18.45;54.43;97026.38;30001;983;1885;-71
2022/08/24 01:51:31;;;;;;;;;;;;;;;18.43;54.39;97030.25;30001;983;1881;-71
2022/08/24 01:52:05;;;;;;;;;;;;;;;18.42;54.94;97033.34;30001;983;1885;-70
2022/08/24 01:52:38;;;;;;;;;;;;;;;18.41;54.55;97032.53;30001;983;1881;-72
2022/08/24 01:53:09;;;;;;;;;;;;;;;18.38;54.93;97032.41;30001;983;1885;-71
2022/08/24 01:53:40;;;;;;;;;;;;;;;18.39;54.94;97034.00;30001;983;1881;-70
2022/08/24 01:54:11;;;;;;;;;;;;;;;18.36;55.13;97026.47;30001;982;1885;-72
2022/08/24 01:54:42;;;;;;;;;;;;;;;18.36;55.17;97034.72;30001;982;1881;-70
2022/08/24 01:55:14;;;;;;;;;;;;;;;18.35;55.12;97033.12;30001;982;1864;-71
2022/08/24 01:55:45;;;;;;;;;;;;;;;18.35;55.01;97027.63;30001;982;1877;-70
2022/08/24 01:56:16;;;;;;;;;;;;;;;18.34;55.34;97024.06;30001;982;1886;-71
2022/08/24 01:56:47;;;;;;;;;;;;;;;18.33;55.32;97038.94;30001;983;1858;-72
2022/08/24 01:57:18;;;;;;;;;;;;;;;18.33;55.14;97025.22;30001;983;1880;-69
2022/08/24 01:57:49;;;;;;;;;;;;;;;18.32;55.35;97025.56;30001;983;1881;-71
2022/08/24 01:58:19;;;;;;;;;;;;;;;18.33;55.13;97029.91;30001;983;1885;-70
2022/08/24 01:58:53;;;;;;;;;;;;;;;18.33;55.15;97032.66;30001;983;1881;-70
2022/08/24 01:59:25;;;;;;;;;;;;;;;18.31;55.53;97033.00;30001;983;1885;-71
2022/08/24 01:59:56;;;;;;;;;;;;;;;18.32;55.23;97031.84;30001;983;1881;-71
2022/08/24 02:00:27;;;;;;;;;;;;;;;18.33;55.53;97024.41;30001;983;1885;-70
2022/08/24 02:00:58;;;;;;;;;;;;;;;18.32;55.44;97022.81;30001;983;1881;-70
2022/08/24 02:01:31;;;;;;;;;;;;;;;18.31;55.53;97021.19;30001;983;1885;-73
2022/08/24 02:02:05;;;;;;;;;;;;;;;18.29;55.44;97029.78;30001;982;1859;-71
2022/08/24 02:02:36;;;;;;;;;;;;;;;18.29;55.76;97028.97;30001;982;1881;-70
2022/08/24 02:03:07;;;;;;;;;;;;;;;18.27;56.00;97025.75;30001;982;1881;-70
2022/08/24 02:03:38;;;;;;;;;;;;;;;18.27;55.50;97036.75;30001;982;1886;-56
2022/08/24 02:04:09;;;;;;;;;;;;;;;18.24;56.31;97024.50;30001;983;1880;-74
2022/08/24 02:04:40;;;;;;;;;;;;;;;18.23;56.23;97031.13;30001;983;1885;-70
2022/08/24 02:05:11;;;;;;;;;;;;;;;18.23;56.22;97027.59;30001;983;1881;-70
2022/08/24 02:05:43;;;;;;;;;;;;;;;18.21;56.05;97022.44;30001;983;1885;-71
2022/08/24 02:06:16;;;;;;;;;;;;;;;18.23;56.04;97024.84;30001;983;1881;-69
2022/08/24 02:06:47;;;;;;;;;;;;;;;18.20;56.47;97029.06;30001;983;1885;-70
2022/08/24 02:07:18;;;;;;;;;;;;;;;18.19;57.68;97040.38;30001;983;1859;-73
2022/08/24 02:07:50;;;;;;;;;;;;;;;18.15;58.11;97036.69;30001;983;1859;-71
2022/08/24 02:08:21;;;;;;;;;;;;;;;18.12;57.41;97034.63;30001;982;1881;-70
2022/08/24 02:08:51;;;;;;;;;;;;;;;18.09;57.36;97033.34;30001;982;1885;-70
2022/08/24 02:09:22;;;;;;;;;;;;;;;18.06;57.38;97029.34;30001;982;1881;-71
2022/08/24 02:09:53;;;;;;;;;;;;;;;18.04;57.29;97028.87;30001;982;1885;-71
2022/08/24 02:10:25;;;;;;;;;;;;;;;18.04;57.68;97036.31;30001;982;1881;-70
2022/08/24 02:10:56;;;;;;;;;;;;;;;18.02;57.79;97027.59;30001;982;1885;-70
2022/08/24 02:11:30;;;;;;;;;;;;;;;18.00;57.47;97036.22;30001;982;1881;-74
2022/08/24 02:12:03;;;;;;;;;;;;;;;17.98;58.82;97040.44;30001;983;1863;-71
2022/08/24 02:12:38;;;;;;;;;;;;;;;17.94;58.23;97023.03;30001;983;1876;-70
2022/08/24 02:13:09;;;;;;;;;;;;;;;17.92;58.02;97041.78;30001;983;1885;-70
2022/08/24 02:13:41;;;;;;;;;;;;;;;17.91;57.89;97035.47;30001;983;1881;-70
2022/08/24 02:14:12;;;;;;;;;;;;;;;17.90;57.59;97031.13;30001;983;1885;-70
2022/08/24 02:14:43;;;;;;;;;;;;;;;17.90;57.49;97028.37;30001;983;1881;-70
2022/08/24 02:15:14;;;;;;;;;;;;;;;17.89;58.17;97037.75;30001;983;1863;-70
2022/08/24 02:15:45;;;;;;;;;;;;;;;17.89;57.92;97042.44;30001;983;1876;-71
2022/08/24 02:16:18;;;;;;;;;;;;;;;17.85;58.27;97036.81;30001;982;1885;-70
2022/08/24 02:16:48;;;;;;;;;;;;;;;17.86;57.87;97041.16;30001;982;1881;-72
2022/08/24 02:17:19;;;;;;;;;;;;;;;17.85;58.51;97042.31;30001;982;1863;-70
2022/08/24 02:17:54;;;;;;;;;;;;;;;17.84;59.07;97035.22;30001;982;1877;-71
2022/08/24 02:18:24;;;;;;;;;;;;;;;17.82;59.07;97042.97;30001;982;1886;-55
2022/08/24 02:18:55;;;;;;;;;;;;;;;17.79;58.77;97038.16;30001;982;1881;-69
2022/08/24 02:19:26;;;;;;;;;;;;;;;17.77;58.68;97040.44;30001;983;1885;-70
2022/08/24 02:19:57;;;;;;;;;;;;;;;17.75;58.79;97040.75;30001;983;1859;-71
2022/08/24 02:20:29;;;;;;;;;;;;;;;17.75;58.99;97039.97;30001;983;1880;-71
2022/08/24 02:21:01;;;;;;;;;;;;;;;17.74;59.12;97041.09;30001;983;1881;-70
2022/08/24 02:21:32;;;;;;;;;;;;;;;17.71;59.33;97037.09;30001;983;1885;-71
2022/08/24 02:22:04;;;;;;;;;;;;;;;17.72;59.16;97037.88;30001;983;1881;-71
2022/08/24 02:22:35;;;;;;;;;;;;;;;17.72;59.42;97037.88;30001;983;1885;-73
2022/08/24 02:23:07;;;;;;;;;;;;;;;17.71;59.63;97042.56;30001;983;1881;-71
2022/08/24 02:23:39;;;;;;;;;;;;;;;17.70;59.67;97042.91;30001;982;1885;-70
2022/08/24 02:24:10;;;;;;;;;;;;;;;17.70;59.72;97037.41;30001;982;1881;-71
2022/08/24 02:24:41;;;;;;;;;;;;;;;17.69;59.92;97041.28;30001;982;1864;-71
2022/08/24 02:25:14;;;;;;;;;;;;;;;17.67;59.79;97041.63;30001;982;1877;-71
2022/08/24 02:25:45;;;;;;;;;;;;;;;17.66;59.52;97042.00;30001;982;1885;-70
2022/08/24 02:26:17;;;;;;;;;;;;;;;17.66;59.72;97044.75;30001;982;1859;-73
2022/08/24 02:26:48;;;;;;;;;;;;;;;17.64;59.99;97046.97;30001;983;1880;-72
2022/08/24 02:27:19;;;;;;;;;;;;;;;17.62;60.01;97050.06;30001;983;1880;-73
2022/08/24 02:27:50;;;;;;;;;;;;;;;17.60;59.73;97046.03;30001;983;1863;-74
2022/08/24 02:28:21;;;;;;;;;;;;;;;17.58;59.65;97045.56;30001;983;1876;-71
2022/08/24 02:28:53;;;;;;;;;;;;;;;17.56;60.35;97051.37;30001;983;1885;-74
2022/08/24 02:29:24;;;;;;;;;;;;;;;17.54;59.83;97048.19;30001;983;1881;-71
2022/08/24 02:29:55;;;;;;;;;;;;;;;17.52;60.01;97044.97;30001;983;1885;-70
2022/08/24 02:30:26;;;;;;;;;;;;;;;17.51;60.08;97045.28;30001;981;1881;-70
2022/08/24 02:30:57;;;;;;;;;;;;;;;17.50;60.10;97041.75;30001;982;1885;-70
2022/08/24 02:31:28;;;;;;;;;;;;;;;17.50;60.39;97043.69;30001;969;1905;-70
2022/08/24 02:31:59;;;;;;;;;;;;;;;17.48;61.62;97048.69;30001;982;1864;-72
2022/08/24 02:32:30;;;;;;;;;;;;;;;17.46;61.56;97045.47;30001;982;1877;-70
2022/08/24 02:33:01;;;;;;;;;;;;;;;17.41;61.11;97044.53;30001;982;1886;-71
2022/08/24 02:33:33;;;;;;;;;;;;;;;17.40;60.87;97048.41;30001;982;1881;-71
2022/08/24 02:34:04;;;;;;;;;;;;;;;17.38;60.41;97047.94;30001;982;1886;-71
2022/08/24 02:34:35;;;;;;;;;;;;;;;17.38;60.52;97036.97;30001;983;1880;-71
2022/08/24 02:35:07;;;;;;;;;;;;;;;17.36;60.14;97044.72;30001;983;1885;-74
2022/08/24 02:35:41;;;;;;;;;;;;;;;17.36;60.78;97039.25;30001;983;1881;-70
2022/08/24 02:36:13;;;;;;;;;;;;;;;17.33;60.45;97042.66;30001;977;1902;-70
2022/08/24 02:36:45;;;;;;;;;;;;;;;17.30;60.34;97043.34;30001;983;1859;-70
2022/08/24 02:37:16;;;;;;;;;;;;;;;17.30;60.15;97043.34;30001;983;1881;-71
2022/08/24 02:37:47;;;;;;;;;;;;;;;17.29;60.08;97036.25;30001;983;1881;-71
2022/08/24 02:38:18;;;;;;;;;;;;;;;17.30;60.15;97037.06;30001;983;1885;-70
2022/08/24 02:38:49;;;;;;;;;;;;;;;17.29;59.91;97047.22;30001;982;1881;-70
2022/08/24 02:39:20;;;;;;;;;;;;;;;17.27;60.55;97043.19;30001;982;1758;-72
2022/08/24 02:39:51;;;;;;;;;;;;;;;17.24;59.93;97039.19;30001;986;1877;-71
2022/08/24 02:40:23;;;;;;;;;;;;;;;17.25;60.22;97040.78;30001;982;1885;-70
2022/08/24 02:40:55;;;;;;;;;;;;;;;17.26;60.19;97041.59;30001;982;1881;-71
2022/08/24 02:41:26;;;;;;;;;;;;;;;17.25;60.41;97037.25;30001;983;1885;-70
2022/08/24 02:41:57;;;;;;;;;;;;;;;17.23;60.74;97042.25;30001;983;1880;-56
2022/08/24 02:42:28;;;;;;;;;;;;;;;17.20;61.08;97038.25;30001;983;1885;-72
2022/08/24 02:42:59;;;;;;;;;;;;;;;17.18;61.45;97043.25;30001;983;1880;-72
2022/08/24 02:43:30;;;;;;;;;;;;;;;17.16;62.10;97037.28;30001;983;1885;-70
2022/08/24 02:44:05;;;;;;;;;;;;;;;17.15;61.92;97041.16;30001;983;1881;-71
2022/08/24 02:44:36;;;;;;;;;;;;;;;17.15;63.54;97041.16;30001;983;1863;-71
2022/08/24 02:45:08;;;;;;;;;;;;;;;17.12;63.50;97043.75;30001;983;1876;-72
2022/08/24 02:45:40;;;;;;;;;;;;;;;17.08;62.50;97038.13;30001;983;1885;-55
2022/08/24 02:46:21;;;;;;;;;;;;;;;17.08;62.41;97040.88;30001;982;1881;-72
2022/08/24 02:46:52;;;;;;;;;;;;;;;17.08;62.07;97035.41;30001;982;1885;-72
2022/08/24 02:47:22;;;;;;;;;;;;;;;17.05;61.80;97038.78;30001;982;1881;-72
2022/08/24 02:47:55;;;;;;;;;;;;;;;17.05;61.71;97038.78;30001;982;1886;-71
2022/08/24 02:48:26;;;;;;;;;;;;;;;17.07;61.08;97039.28;30001;982;1881;-72
2022/08/24 02:49:00;;;;;;;;;;;;;;;17.06;60.82;97037.66;30001;983;1885;-72
2022/08/24 02:49:31;;;;;;;;;;;;;;;17.04;61.21;97042.66;30001;983;1880;-71
2022/08/24 02:50:04;;;;;;;;;;;;;;;17.02;61.56;97033.97;30001;983;1863;-71
2022/08/24 02:50:42;;;;;;;;;;;;;;;17.02;61.35;97040.25;30001;983;1876;-71
2022/08/24 02:51:24;;;;;;;;;;;;;;;17.05;60.75;97030.56;30001;983;1885;-71
2022/08/24 02:51:55;;;;;;;;;;;;;;;17.09;60.53;97026.03;30001;983;1881;-70
2022/08/24 02:52:25;;;;;;;;;;;;;;;17.11;60.30;97036.66;30001;983;1863;-71
2022/08/24 02:52:57;;;;;;;;;;;;;;;17.13;60.65;97032.47;30001;983;1877;-71
2022/08/24 02:53:28;;;;;;;;;;;;;;;17.15;60.07;97040.38;30001;983;1885;-72
2022/08/24 02:53:59;;;;;;;;;;;;;;;17.17;60.68;97035.34;30001;982;1881;-71
2022/08/24 02:54:30;;;;;;;;;;;;;;;17.17;60.40;97033.41;30001;982;1885;-74
2022/08/24 02:55:01;;;;;;;;;;;;;;;17.18;60.60;97026.00;30001;982;1859;-73
2022/08/24 02:55:32;;;;;;;;;;;;;;;17.18;60.38;97034.22;30001;982;1881;-71
2022/08/24 02:56:03;;;;;;;;;;;;;;;17.18;60.53;97035.03;30001;983;1880;-71